sensor_id;sensor_type;location;lat;lon;timestamp;temperature;humidity
79026;DHT22;74892;44.760;37.726;2024-01-30T03:09:45;-1.84;76.45
79026;DHT22;74892;44.760;37.726;2024-01-30T03:10:47;-1.84;76.29
79026;DHT22;74892;44.760;37.726;2024-01-30T03:11:49;-1.85;76.15
79026;DHT22;74892;44.760;37.726;2024-01-30T03:12:50;-1.86;76.56
79026;DHT22;74892;44.760;37.726;2024-01-30T03:14:02;-1.85;77.06
79026;DHT22;74892;44.760;37.726;2024-01-30T03:15:05;-1.87;77.11
79026;DHT22;74892;44.760;37.726;2024-01-30T03:16:08;-1.88;77.13
79026;DHT22;74892;44.760;37.726;2024-01-30T03:17:10;-1.90;77.53
79026;DHT22;74892;44.760;37.726;2024-01-30T03:18:11;-1.92;77.66
79026;DHT22;74892;44.760;37.726;2024-01-30T03:19:13;-1.92;77.68
79026;DHT22;74892;44.760;37.726;2024-01-30T03:20:14;-1.90;77.63
79026;DHT22;74892;44.760;37.726;2024-01-30T03:21:16;-1.91;77.46
79026;DHT22;74892;44.760;37.726;2024-01-30T03:22:17;-1.90;77.51
79026;DHT22;74892;44.760;37.726;2024-01-30T03:23:19;-1.88;77.44
79026;DHT22;74892;44.760;37.726;2024-01-30T03:24:20;-1.89;76.91
79026;DHT22;74892;44.760;37.726;2024-01-30T03:25:22;-1.92;76.94
79026;DHT22;74892;44.760;37.726;2024-01-30T03:26:23;-1.94;77.05
79026;DHT22;74892;44.760;37.726;2024-01-30T03:27:25;-1.94;76.71
79026;DHT22;74892;44.760;37.726;2024-01-30T03:28:26;-1.97;76.79
79026;DHT22;74892;44.760;37.726;2024-01-30T03:29:28;-1.97;76.47
79026;DHT22;74892;44.760;37.726;2024-01-30T03:30:30;-2.00;76.58
79026;DHT22;74892;44.760;37.726;2024-01-30T03:31:31;-2.00;76.68
79026;DHT22;74892;44.760;37.726;2024-01-30T03:32:33;-2.00;76.90
79026;DHT22;74892;44.760;37.726;2024-01-30T03:33:36;-2.01;76.89
79026;DHT22;74892;44.760;37.726;2024-01-30T03:34:37;-2.00;76.44
79026;DHT22;74892;44.760;37.726;2024-01-30T03:35:39;-1.97;76.59
79026;DHT22;74892;44.760;37.726;2024-01-30T03:36:40;-1.98;76.41
79026;DHT22;74892;44.760;37.726;2024-01-30T03:37:42;-1.99;76.32
79026;DHT22;74892;44.760;37.726;2024-01-30T03:38:43;-1.98;76.16
79026;DHT22;74892;44.760;37.726;2024-01-30T03:39:45;-1.95;76.15
79026;DHT22;74892;44.760;37.726;2024-01-30T03:40:46;-1.95;76.36
79026;DHT22;74892;44.760;37.726;2024-01-30T03:41:47;-1.94;76.20
79026;DHT22;74892;44.760;37.726;2024-01-30T03:42:49;-1.95;76.08
79026;DHT22;74892;44.760;37.726;2024-01-30T03:43:50;-2.00;76.29
79026;DHT22;74892;44.760;37.726;2024-01-30T03:44:52;-2.00;76.11
79026;DHT22;74892;44.760;37.726;2024-01-30T03:45:54;-1.98;76.05
79026;DHT22;74892;44.760;37.726;2024-01-30T03:46:56;-1.97;76.38
79026;DHT22;74892;44.760;37.726;2024-01-30T03:47:57;-1.98;76.50
79026;DHT22;74892;44.760;37.726;2024-01-30T03:48:59;-2.00;76.54
79026;DHT22;74892;44.760;37.726;2024-01-30T03:50:00;-2.01;76.82
79026;DHT22;74892;44.760;37.726;2024-01-30T03:51:02;-2.01;76.88
79026;DHT22;74892;44.760;37.726;2024-01-30T03:52:03;-2.01;76.85
79026;DHT22;74892;44.760;37.726;2024-01-30T03:53:05;-2.02;76.78
79026;DHT22;74892;44.760;37.726;2024-01-30T03:54:06;-2.03;76.80
79026;DHT22;74892;44.760;37.726;2024-01-30T03:55:08;-2.03;76.98
79026;DHT22;74892;44.760;37.726;2024-01-30T03:56:10;-2.02;76.73
79026;DHT22;74892;44.760;37.726;2024-01-30T03:57:11;-2.02;76.70
79026;DHT22;74892;44.760;37.726;2024-01-30T03:58:13;-2.02;76.94
79026;DHT22;74892;44.760;37.726;2024-01-30T03:59:15;-2.03;76.92
79026;DHT22;74892;44.760;37.726;2024-01-30T04:00:16;-2.00;76.74
79026;DHT22;74892;44.760;37.726;2024-01-30T04:01:18;-2.01;76.63
79026;DHT22;74892;44.760;37.726;2024-01-30T04:02:20;-2.00;76.79
79026;DHT22;74892;44.760;37.726;2024-01-30T04:03:22;-2.02;76.60
79026;DHT22;74892;44.760;37.726;2024-01-30T04:04:23;-2.00;76.59
79026;DHT22;74892;44.760;37.726;2024-01-30T04:05:25;-2.00;76.46
79026;DHT22;74892;44.760;37.726;2024-01-30T04:06:26;-2.00;76.65
79026;DHT22;74892;44.760;37.726;2024-01-30T04:07:28;-2.01;76.50
79026;DHT22;74892;44.760;37.726;2024-01-30T04:08:30;-2.00;76.53
79026;DHT22;74892;44.760;37.726;2024-01-30T04:09:31;-2.00;76.23
79026;DHT22;74892;44.760;37.726;2024-01-30T04:10:34;-2.01;76.25
79026;DHT22;74892;44.760;37.726;2024-01-30T04:11:35;-2.02;76.08
79026;DHT22;74892;44.760;37.726;2024-01-30T04:12:37;-2.01;76.03
79026;DHT22;74892;44.760;37.726;2024-01-30T04:13:41;-1.98;75.41
79026;DHT22;74892;44.760;37.726;2024-01-30T04:14:44;-1.94;75.14
79026;DHT22;74892;44.760;37.726;2024-01-30T04:15:46;-1.92;74.76
79026;DHT22;74892;44.760;37.726;2024-01-30T04:16:47;-1.91;74.63
79026;DHT22;74892;44.760;37.726;2024-01-30T04:17:49;-1.91;74.47
79026;DHT22;74892;44.760;37.726;2024-01-30T04:18:51;-1.93;74.56
79026;DHT22;74892;44.760;37.726;2024-01-30T04:19:53;-1.93;74.35
79026;DHT22;74892;44.760;37.726;2024-01-30T04:20:54;-1.92;74.25
79026;DHT22;74892;44.760;37.726;2024-01-30T04:21:56;-1.91;74.30
79026;DHT22;74892;44.760;37.726;2024-01-30T04:22:58;-1.92;74.32
79026;DHT22;74892;44.760;37.726;2024-01-30T04:23:59;-1.93;74.09
79026;DHT22;74892;44.760;37.726;2024-01-30T04:25:01;-1.92;73.78
79026;DHT22;74892;44.760;37.726;2024-01-30T04:26:02;-1.88;73.30
79026;DHT22;74892;44.760;37.726;2024-01-30T04:27:04;-1.87;73.58
79026;DHT22;74892;44.760;37.726;2024-01-30T04:28:05;-1.88;73.18
79026;DHT22;74892;44.760;37.726;2024-01-30T04:29:07;-1.85;73.13
79026;DHT22;74892;44.760;37.726;2024-01-30T04:30:09;-1.86;73.42
79026;DHT22;74892;44.760;37.726;2024-01-30T04:31:11;-1.86;73.02
79026;DHT22;74892;44.760;37.726;2024-01-30T04:32:13;-1.84;72.00
79026;DHT22;74892;44.760;37.726;2024-01-30T04:33:14;-1.79;72.34
79026;DHT22;74892;44.760;37.726;2024-01-30T04:34:16;-1.77;72.05
79026;DHT22;74892;44.760;37.726;2024-01-30T04:35:17;-1.77;72.22
79026;DHT22;74892;44.760;37.726;2024-01-30T04:36:21;-1.76;71.97
79026;DHT22;74892;44.760;37.726;2024-01-30T04:37:23;-1.79;72.26
79026;DHT22;74892;44.760;37.726;2024-01-30T04:38:26;-1.79;72.12
79026;DHT22;74892;44.760;37.726;2024-01-30T04:39:27;-1.84;72.80
79026;DHT22;74892;44.760;37.726;2024-01-30T04:40:29;-1.85;73.18
79026;DHT22;74892;44.760;37.726;2024-01-30T04:41:30;-1.89;73.01
79026;DHT22;74892;44.760;37.726;2024-01-30T04:42:33;-1.91;73.22
79026;DHT22;74892;44.760;37.726;2024-01-30T04:43:35;-1.91;73.28
79026;DHT22;74892;44.760;37.726;2024-01-30T04:44:37;-1.92;73.27
79026;DHT22;74892;44.760;37.726;2024-01-30T04:45:38;-1.95;73.09
79026;DHT22;74892;44.760;37.726;2024-01-30T04:46:40;-1.94;73.23
79026;DHT22;74892;44.760;37.726;2024-01-30T04:47:42;-1.93;73.51
79026;DHT22;74892;44.760;37.726;2024-01-30T04:48:43;-1.94;73.86
79026;DHT22;74892;44.760;37.726;2024-01-30T04:49:45;-1.95;73.40
79026;DHT22;74892;44.760;37.726;2024-01-30T04:50:46;-1.95;73.49
79026;DHT22;74892;44.760;37.726;2024-01-30T04:51:48;-1.97;73.65
79026;DHT22;74892;44.760;37.726;2024-01-30T04:52:50;-1.95;73.61
79026;DHT22;74892;44.760;37.726;2024-01-30T04:53:51;-1.94;73.74
79026;DHT22;74892;44.760;37.726;2024-01-30T04:54:53;-1.94;74.15
79026;DHT22;74892;44.760;37.726;2024-01-30T04:55:54;-1.95;74.07
79026;DHT22;74892;44.760;37.726;2024-01-30T04:56:56;-1.93;73.94
79026;DHT22;74892;44.760;37.726;2024-01-30T04:57:57;-1.89;73.51
79026;DHT22;74892;44.760;37.726;2024-01-30T04:58:59;-1.90;73.86
79026;DHT22;74892;44.760;37.726;2024-01-30T05:00:00;-1.89;74.19
79026;DHT22;74892;44.760;37.726;2024-01-30T05:01:02;-1.90;74.04
79026;DHT22;74892;44.760;37.726;2024-01-30T05:02:04;-1.90;74.21
79026;DHT22;74892;44.760;37.726;2024-01-30T05:03:05;-1.89;74.19
79026;DHT22;74892;44.760;37.726;2024-01-30T05:04:07;-1.87;74.37
79026;DHT22;74892;44.760;37.726;2024-01-30T05:05:09;-1.87;74.61
79026;DHT22;74892;44.760;37.726;2024-01-30T05:06:11;-1.79;74.07
79026;DHT22;74892;44.760;37.726;2024-01-30T05:07:12;-1.65;73.52
79026;DHT22;74892;44.760;37.726;2024-01-30T05:08:14;-1.57;73.13
79026;DHT22;74892;44.760;37.726;2024-01-30T05:09:15;-1.61;73.28
79026;DHT22;74892;44.760;37.726;2024-01-30T05:10:17;-1.71;73.84
79026;DHT22;74892;44.760;37.726;2024-01-30T05:11:18;-1.70;73.25
79026;DHT22;74892;44.760;37.726;2024-01-30T05:12:20;-1.68;73.22
79026;DHT22;74892;44.760;37.726;2024-01-30T05:13:21;-1.68;73.57
79026;DHT22;74892;44.760;37.726;2024-01-30T05:14:23;-1.65;73.73
79026;DHT22;74892;44.760;37.726;2024-01-30T05:15:24;-1.60;73.70
79026;DHT22;74892;44.760;37.726;2024-01-30T05:16:26;-1.54;73.40
79026;DHT22;74892;44.760;37.726;2024-01-30T05:17:28;-1.47;73.30
79026;DHT22;74892;44.760;37.726;2024-01-30T05:18:29;-1.41;72.64
79026;DHT22;74892;44.760;37.726;2024-01-30T05:19:31;-1.33;72.57
79026;DHT22;74892;44.760;37.726;2024-01-30T05:20:32;-1.26;72.19
79026;DHT22;74892;44.760;37.726;2024-01-30T05:21:34;-1.18;71.72
79026;DHT22;74892;44.760;37.726;2024-01-30T05:22:36;-1.12;71.38
79026;DHT22;74892;44.760;37.726;2024-01-30T05:23:37;-1.11;71.23
79026;DHT22;74892;44.760;37.726;2024-01-30T05:24:43;-1.03;71.43
79026;DHT22;74892;44.760;37.726;2024-01-30T05:25:44;-1.01;70.48
79026;DHT22;74892;44.760;37.726;2024-01-30T05:26:46;-1.01;70.67
79026;DHT22;74892;44.760;37.726;2024-01-30T05:27:49;-0.81;69.44
79026;DHT22;74892;44.760;37.726;2024-01-30T05:28:50;-0.64;69.14
79026;DHT22;74892;44.760;37.726;2024-01-30T05:29:52;-0.55;68.00
79026;DHT22;74892;44.760;37.726;2024-01-30T05:30:56;-0.36;68.01
79026;DHT22;74892;44.760;37.726;2024-01-30T05:31:58;-0.12;66.07
79026;DHT22;74892;44.760;37.726;2024-01-30T05:32:59;-0.07;66.01
79026;DHT22;74892;44.760;37.726;2024-01-30T05:34:01;-0.11;66.78
79026;DHT22;74892;44.760;37.726;2024-01-30T05:35:03;-0.07;66.98
79026;DHT22;74892;44.760;37.726;2024-01-30T05:36:05;0.21;65.68
79026;DHT22;74892;44.760;37.726;2024-01-30T05:37:07;0.47;65.24
79026;DHT22;74892;44.760;37.726;2024-01-30T05:38:08;0.68;64.57
79026;DHT22;74892;44.760;37.726;2024-01-30T05:39:10;0.79;63.67
79026;DHT22;74892;44.760;37.726;2024-01-30T05:40:12;0.82;63.40
79026;DHT22;74892;44.760;37.726;2024-01-30T05:41:14;0.88;62.51
79026;DHT22;74892;44.760;37.726;2024-01-30T05:42:15;0.84;62.91
79026;DHT22;74892;44.760;37.726;2024-01-30T05:43:18;0.80;63.44
79026;DHT22;74892;44.760;37.726;2024-01-30T05:44:19;0.74;63.41
79026;DHT22;74892;44.760;37.726;2024-01-30T05:45:22;0.87;63.63
79026;DHT22;74892;44.760;37.726;2024-01-30T05:46:24;1.08;62.15
79026;DHT22;74892;44.760;37.726;2024-01-30T05:47:26;1.26;61.33
79026;DHT22;74892;44.760;37.726;2024-01-30T05:48:27;1.38;60.85
79026;DHT22;74892;44.760;37.726;2024-01-30T05:49:29;1.29;61.67
79026;DHT22;74892;44.760;37.726;2024-01-30T05:50:31;1.46;61.10
79026;DHT22;74892;44.760;37.726;2024-01-30T05:51:32;1.65;60.54
79026;DHT22;74892;44.760;37.726;2024-01-30T05:52:34;1.66;59.47
79026;DHT22;74892;44.760;37.726;2024-01-30T05:53:36;1.62;59.87
79026;DHT22;74892;44.760;37.726;2024-01-30T05:54:37;1.56;59.32
79026;DHT22;74892;44.760;37.726;2024-01-30T05:55:39;1.57;59.99
79026;DHT22;74892;44.760;37.726;2024-01-30T05:56:40;1.60;60.15
79026;DHT22;74892;44.760;37.726;2024-01-30T05:57:42;1.73;60.53
79026;DHT22;74892;44.760;37.726;2024-01-30T05:58:44;1.86;58.75
79026;DHT22;74892;44.760;37.726;2024-01-30T05:59:45;2.02;58.18
79026;DHT22;74892;44.760;37.726;2024-01-30T06:00:48;2.20;57.31
79026;DHT22;74892;44.760;37.726;2024-01-30T06:01:50;2.24;57.16
79026;DHT22;74892;44.760;37.726;2024-01-30T06:02:52;2.43;56.52
79026;DHT22;74892;44.760;37.726;2024-01-30T06:03:53;2.51;55.17
79026;DHT22;74892;44.760;37.726;2024-01-30T06:04:57;2.44;56.58
79026;DHT22;74892;44.760;37.726;2024-01-30T06:05:59;2.71;55.24
79026;DHT22;74892;44.760;37.726;2024-01-30T06:07:01;2.81;54.39
79026;DHT22;74892;44.760;37.726;2024-01-30T06:08:03;2.83;54.42
79026;DHT22;74892;44.760;37.726;2024-01-30T06:09:05;2.93;53.99
79026;DHT22;74892;44.760;37.726;2024-01-30T06:10:09;2.74;54.43
79026;DHT22;74892;44.760;37.726;2024-01-30T06:11:11;2.53;54.23
79026;DHT22;74892;44.760;37.726;2024-01-30T06:12:13;2.38;55.34
79026;DHT22;74892;44.760;37.726;2024-01-30T06:13:15;1.90;56.41
79026;DHT22;74892;44.760;37.726;2024-01-30T06:14:16;1.43;57.83
79026;DHT22;74892;44.760;37.726;2024-01-30T06:15:18;1.10;59.85
79026;DHT22;74892;44.760;37.726;2024-01-30T06:16:20;0.84;60.71
79026;DHT22;74892;44.760;37.726;2024-01-30T06:17:24;0.58;60.48
79026;DHT22;74892;44.760;37.726;2024-01-30T06:18:26;0.34;62.36
79026;DHT22;74892;44.760;37.726;2024-01-30T06:19:28;0.15;62.68
79026;DHT22;74892;44.760;37.726;2024-01-30T06:20:30;-0.00;62.90
79026;DHT22;74892;44.760;37.726;2024-01-30T06:21:31;-0.08;62.05
79026;DHT22;74892;44.760;37.726;2024-01-30T06:22:35;-0.19;62.56
79026;DHT22;74892;44.760;37.726;2024-01-30T06:23:36;-0.22;61.18
79026;DHT22;74892;44.760;37.726;2024-01-30T06:24:38;0.07;61.46
79026;DHT22;74892;44.760;37.726;2024-01-30T06:25:40;0.69;59.12
79026;DHT22;74892;44.760;37.726;2024-01-30T06:26:42;1.42;56.26
79026;DHT22;74892;44.760;37.726;2024-01-30T06:27:44;2.08;54.43
79026;DHT22;74892;44.760;37.726;2024-01-30T06:28:45;2.56;53.66
79026;DHT22;74892;44.760;37.726;2024-01-30T06:29:47;2.72;50.95
79026;DHT22;74892;44.760;37.726;2024-01-30T06:30:48;2.90;49.39
79026;DHT22;74892;44.760;37.726;2024-01-30T06:31:50;3.10;49.43
79026;DHT22;74892;44.760;37.726;2024-01-30T06:32:52;3.48;47.52
79026;DHT22;74892;44.760;37.726;2024-01-30T06:33:53;3.46;46.43
79026;DHT22;74892;44.760;37.726;2024-01-30T06:34:55;3.49;46.76
79026;DHT22;74892;44.760;37.726;2024-01-30T06:35:56;3.52;47.06
79026;DHT22;74892;44.760;37.726;2024-01-30T06:36:58;3.70;46.10
79026;DHT22;74892;44.760;37.726;2024-01-30T06:38:02;3.79;43.95
79026;DHT22;74892;44.760;37.726;2024-01-30T06:39:04;3.93;44.72
79026;DHT22;74892;44.760;37.726;2024-01-30T06:40:07;4.29;44.87
79026;DHT22;74892;44.760;37.726;2024-01-30T06:41:08;4.49;43.74
79026;DHT22;74892;44.760;37.726;2024-01-30T06:42:10;4.48;44.25
79026;DHT22;74892;44.760;37.726;2024-01-30T06:43:13;4.67;43.80
79026;DHT22;74892;44.760;37.726;2024-01-30T06:44:14;4.84;44.87
79026;DHT22;74892;44.760;37.726;2024-01-30T06:45:16;4.87;43.37
79026;DHT22;74892;44.760;37.726;2024-01-30T06:46:18;4.81;45.51
79026;DHT22;74892;44.760;37.726;2024-01-30T06:47:19;5.05;45.01
79026;DHT22;74892;44.760;37.726;2024-01-30T06:48:21;5.31;44.96
79026;DHT22;74892;44.760;37.726;2024-01-30T06:49:23;5.50;41.16
79026;DHT22;74892;44.760;37.726;2024-01-30T06:50:24;5.32;41.28
79026;DHT22;74892;44.760;37.726;2024-01-30T06:51:26;5.33;40.48
79026;DHT22;74892;44.760;37.726;2024-01-30T06:52:30;5.32;41.78
79026;DHT22;74892;44.760;37.726;2024-01-30T06:53:32;5.20;41.94
79026;DHT22;74892;44.760;37.726;2024-01-30T06:54:34;5.57;41.48
79026;DHT22;74892;44.760;37.726;2024-01-30T06:55:35;5.81;39.68
79026;DHT22;74892;44.760;37.726;2024-01-30T06:56:37;6.15;38.74
79026;DHT22;74892;44.760;37.726;2024-01-30T06:57:38;5.84;39.51
79026;DHT22;74892;44.760;37.726;2024-01-30T06:58:40;5.98;39.94
79026;DHT22;74892;44.760;37.726;2024-01-30T06:59:41;6.29;39.14
79026;DHT22;74892;44.760;37.726;2024-01-30T07:00:45;6.39;37.67
79026;DHT22;74892;44.760;37.726;2024-01-30T07:01:46;6.02;37.51
79026;DHT22;74892;44.760;37.726;2024-01-30T07:02:48;5.85;39.79
79026;DHT22;74892;44.760;37.726;2024-01-30T07:03:49;6.02;40.30
79026;DHT22;74892;44.760;37.726;2024-01-30T07:04:51;6.33;40.38
79026;DHT22;74892;44.760;37.726;2024-01-30T07:05:52;6.10;38.90
79026;DHT22;74892;44.760;37.726;2024-01-30T07:06:54;5.86;38.69
79026;DHT22;74892;44.760;37.726;2024-01-30T07:07:56;5.95;39.17
79026;DHT22;74892;44.760;37.726;2024-01-30T07:09:00;6.15;38.56
79026;DHT22;74892;44.760;37.726;2024-01-30T07:10:02;6.16;37.07
79026;DHT22;74892;44.760;37.726;2024-01-30T07:11:06;6.12;36.50
79026;DHT22;74892;44.760;37.726;2024-01-30T07:12:08;6.43;37.13
79026;DHT22;74892;44.760;37.726;2024-01-30T07:13:12;6.24;36.45
79026;DHT22;74892;44.760;37.726;2024-01-30T07:14:17;6.19;37.36
79026;DHT22;74892;44.760;37.726;2024-01-30T07:15:19;6.33;36.99
79026;DHT22;74892;44.760;37.726;2024-01-30T07:16:24;6.44;36.39
79026;DHT22;74892;44.760;37.726;2024-01-30T07:17:28;6.43;37.10
79026;DHT22;74892;44.760;37.726;2024-01-30T07:18:32;5.91;35.59
79026;DHT22;74892;44.760;37.726;2024-01-30T07:19:34;5.70;36.32
79026;DHT22;74892;44.760;37.726;2024-01-30T07:20:36;5.74;36.22
79026;DHT22;74892;44.760;37.726;2024-01-30T07:21:40;5.59;37.03
79026;DHT22;74892;44.760;37.726;2024-01-30T07:22:41;5.56;37.57
79026;DHT22;74892;44.760;37.726;2024-01-30T07:23:49;5.41;39.31
79026;DHT22;74892;44.760;37.726;2024-01-30T07:24:51;5.69;38.69
79026;DHT22;74892;44.760;37.726;2024-01-30T07:27:47;5.57;36.27
79026;DHT22;74892;44.760;37.726;2024-01-30T07:28:49;5.28;37.18
79026;DHT22;74892;44.760;37.726;2024-01-30T07:29:51;4.97;36.94
79026;DHT22;74892;44.760;37.726;2024-01-30T07:30:53;4.81;35.71
79026;DHT22;74892;44.760;37.726;2024-01-30T07:31:57;4.75;37.55
79026;DHT22;74892;44.760;37.726;2024-01-30T07:32:59;4.72;40.52
79026;DHT22;74892;44.760;37.726;2024-01-30T07:34:00;5.05;40.18
79026;DHT22;74892;44.760;37.726;2024-01-30T07:35:02;5.19;36.38
79026;DHT22;74892;44.760;37.726;2024-01-30T07:36:05;5.10;36.76
79026;DHT22;74892;44.760;37.726;2024-01-30T07:37:10;5.32;38.65
79026;DHT22;74892;44.760;37.726;2024-01-30T07:38:12;5.49;37.41
79026;DHT22;74892;44.760;37.726;2024-01-30T07:39:16;5.48;36.88
79026;DHT22;74892;44.760;37.726;2024-01-30T07:40:18;5.27;34.50
79026;DHT22;74892;44.760;37.726;2024-01-30T07:41:23;5.09;37.37
79026;DHT22;74892;44.760;37.726;2024-01-30T07:42:28;5.12;38.32
79026;DHT22;74892;44.760;37.726;2024-01-30T07:43:29;5.19;37.34
79026;DHT22;74892;44.760;37.726;2024-01-30T07:44:31;5.33;36.80
79026;DHT22;74892;44.760;37.726;2024-01-30T07:45:33;5.26;35.49
79026;DHT22;74892;44.760;37.726;2024-01-30T07:46:34;5.08;37.80
79026;DHT22;74892;44.760;37.726;2024-01-30T07:47:36;5.13;36.50
79026;DHT22;74892;44.760;37.726;2024-01-30T07:48:38;5.23;37.16
79026;DHT22;74892;44.760;37.726;2024-01-30T07:49:39;5.17;37.34
79026;DHT22;74892;44.760;37.726;2024-01-30T07:50:41;5.04;39.18
79026;DHT22;74892;44.760;37.726;2024-01-30T07:51:43;5.09;38.38
79026;DHT22;74892;44.760;37.726;2024-01-30T07:52:46;4.89;38.76
79026;DHT22;74892;44.760;37.726;2024-01-30T07:53:53;4.67;39.32
79026;DHT22;74892;44.760;37.726;2024-01-30T07:57:09;4.65;38.63
79026;DHT22;74892;44.760;37.726;2024-01-30T07:58:21;4.94;38.58
79026;DHT22;74892;44.760;37.726;2024-01-30T07:59:27;5.12;38.28
79026;DHT22;74892;44.760;37.726;2024-01-30T08:00:32;5.05;38.44
79026;DHT22;74892;44.760;37.726;2024-01-30T08:01:33;5.00;38.55
79026;DHT22;74892;44.760;37.726;2024-01-30T08:02:35;4.87;38.86
79026;DHT22;74892;44.760;37.726;2024-01-30T08:03:37;5.15;39.11
79026;DHT22;74892;44.760;37.726;2024-01-30T08:04:41;5.35;36.90
79026;DHT22;74892;44.760;37.726;2024-01-30T08:05:43;5.39;37.40
79026;DHT22;74892;44.760;37.726;2024-01-30T08:06:47;5.35;37.76
79026;DHT22;74892;44.760;37.726;2024-01-30T08:07:54;5.36;38.76
79026;DHT22;74892;44.760;37.726;2024-01-30T08:08:56;5.26;38.42
79026;DHT22;74892;44.760;37.726;2024-01-30T08:10:11;5.26;34.86
79026;DHT22;74892;44.760;37.726;2024-01-30T08:11:14;5.42;36.25
79026;DHT22;74892;44.760;37.726;2024-01-30T08:12:16;5.52;35.40
79026;DHT22;74892;44.760;37.726;2024-01-30T08:13:21;5.53;36.63
79026;DHT22;74892;44.760;37.726;2024-01-30T08:14:22;5.81;37.37
79026;DHT22;74892;44.760;37.726;2024-01-30T08:15:37;6.12;36.17
79026;DHT22;74892;44.760;37.726;2024-01-30T08:16:41;6.00;36.99
79026;DHT22;74892;44.760;37.726;2024-01-30T08:17:52;5.99;37.06
79026;DHT22;74892;44.760;37.726;2024-01-30T08:19:02;5.78;36.85
79026;DHT22;74892;44.760;37.726;2024-01-30T08:20:04;5.69;37.30
79026;DHT22;74892;44.760;37.726;2024-01-30T08:21:20;5.60;38.54
79026;DHT22;74892;44.760;37.726;2024-01-30T08:22:24;5.66;37.60
79026;DHT22;74892;44.760;37.726;2024-01-30T08:23:26;5.83;36.89
79026;DHT22;74892;44.760;37.726;2024-01-30T08:24:27;5.90;38.01
79026;DHT22;74892;44.760;37.726;2024-01-30T08:25:32;5.97;37.94
79026;DHT22;74892;44.760;37.726;2024-01-30T08:26:35;5.99;37.56
79026;DHT22;74892;44.760;37.726;2024-01-30T08:27:39;5.80;37.40
79026;DHT22;74892;44.760;37.726;2024-01-30T08:28:46;5.81;38.53
79026;DHT22;74892;44.760;37.726;2024-01-30T08:29:50;5.75;35.61
79026;DHT22;74892;44.760;37.726;2024-01-30T08:30:52;5.67;37.91
79026;DHT22;74892;44.760;37.726;2024-01-30T08:31:57;5.54;35.08
79026;DHT22;74892;44.760;37.726;2024-01-30T08:33:03;5.34;38.32
79026;DHT22;74892;44.760;37.726;2024-01-30T08:34:05;5.48;36.64
79026;DHT22;74892;44.760;37.726;2024-01-30T08:35:09;5.47;38.04
79026;DHT22;74892;44.760;37.726;2024-01-30T08:36:16;5.43;37.81
79026;DHT22;74892;44.760;37.726;2024-01-30T08:37:20;5.46;35.08
79026;DHT22;74892;44.760;37.726;2024-01-30T08:38:22;5.33;38.22
79026;DHT22;74892;44.760;37.726;2024-01-30T08:39:23;5.64;38.88
79026;DHT22;74892;44.760;37.726;2024-01-30T08:40:30;5.83;36.53
79026;DHT22;74892;44.760;37.726;2024-01-30T08:41:32;5.68;36.91
79026;DHT22;74892;44.760;37.726;2024-01-30T08:42:39;5.57;38.04
79026;DHT22;74892;44.760;37.726;2024-01-30T08:43:41;5.71;38.46
79026;DHT22;74892;44.760;37.726;2024-01-30T08:44:51;5.70;37.43
79026;DHT22;74892;44.760;37.726;2024-01-30T08:45:54;5.52;38.88
79026;DHT22;74892;44.760;37.726;2024-01-30T08:46:58;5.56;40.33
79026;DHT22;74892;44.760;37.726;2024-01-30T08:48:05;5.76;40.31
79026;DHT22;74892;44.760;37.726;2024-01-30T08:49:10;5.98;37.04
79026;DHT22;74892;44.760;37.726;2024-01-30T08:50:12;5.75;37.94
79026;DHT22;74892;44.760;37.726;2024-01-30T08:51:24;5.92;38.44
79026;DHT22;74892;44.760;37.726;2024-01-30T08:52:26;5.82;35.58
79026;DHT22;74892;44.760;37.726;2024-01-30T08:53:28;5.86;37.46
79026;DHT22;74892;44.760;37.726;2024-01-30T08:54:32;5.89;35.92
79026;DHT22;74892;44.760;37.726;2024-01-30T08:55:40;5.82;35.49
79026;DHT22;74892;44.760;37.726;2024-01-30T08:56:42;5.77;36.79
79026;DHT22;74892;44.760;37.726;2024-01-30T08:57:44;5.93;36.75
79026;DHT22;74892;44.760;37.726;2024-01-30T08:58:50;6.16;35.76
79026;DHT22;74892;44.760;37.726;2024-01-30T08:59:55;6.10;35.58
79026;DHT22;74892;44.760;37.726;2024-01-30T09:01:02;6.10;38.11
79026;DHT22;74892;44.760;37.726;2024-01-30T09:02:09;6.31;38.90
79026;DHT22;74892;44.760;37.726;2024-01-30T09:03:16;6.34;35.76
79026;DHT22;74892;44.760;37.726;2024-01-30T09:04:18;6.17;35.03
79026;DHT22;74892;44.760;37.726;2024-01-30T09:05:22;5.97;35.79
79026;DHT22;74892;44.760;37.726;2024-01-30T09:06:27;6.06;37.48
79026;DHT22;74892;44.760;37.726;2024-01-30T09:07:42;5.93;39.33
79026;DHT22;74892;44.760;37.726;2024-01-30T09:08:44;6.11;39.12
79026;DHT22;74892;44.760;37.726;2024-01-30T09:09:48;6.33;37.73
79026;DHT22;74892;44.760;37.726;2024-01-30T09:10:53;6.35;37.79
79026;DHT22;74892;44.760;37.726;2024-01-30T09:11:56;6.29;38.38
79026;DHT22;74892;44.760;37.726;2024-01-30T09:12:59;6.17;37.66
79026;DHT22;74892;44.760;37.726;2024-01-30T09:14:01;6.26;37.62
79026;DHT22;74892;44.760;37.726;2024-01-30T09:15:03;6.37;36.87
79026;DHT22;74892;44.760;37.726;2024-01-30T09:16:17;5.98;36.41
79026;DHT22;74892;44.760;37.726;2024-01-30T09:17:26;5.98;37.91
79026;DHT22;74892;44.760;37.726;2024-01-30T09:18:33;6.37;37.52
79026;DHT22;74892;44.760;37.726;2024-01-30T09:19:51;6.41;38.54
79026;DHT22;74892;44.760;37.726;2024-01-30T09:20:55;6.35;37.91
79026;DHT22;74892;44.760;37.726;2024-01-30T09:22:04;6.57;36.18
79026;DHT22;74892;44.760;37.726;2024-01-30T09:23:08;6.78;35.04
79026;DHT22;74892;44.760;37.726;2024-01-30T09:24:21;6.60;33.04
79026;DHT22;74892;44.760;37.726;2024-01-30T09:25:33;6.41;37.19
79026;DHT22;74892;44.760;37.726;2024-01-30T09:26:35;6.55;36.73
79026;DHT22;74892;44.760;37.726;2024-01-30T09:27:37;6.51;35.34
79026;DHT22;74892;44.760;37.726;2024-01-30T09:28:47;6.37;37.24
79026;DHT22;74892;44.760;37.726;2024-01-30T09:30:02;6.75;36.94
79026;DHT22;74892;44.760;37.726;2024-01-30T09:31:26;6.68;34.32
79026;DHT22;74892;44.760;37.726;2024-01-30T09:32:30;6.50;36.59
79026;DHT22;74892;44.760;37.726;2024-01-30T09:33:50;6.60;36.65
79026;DHT22;74892;44.760;37.726;2024-01-30T09:35:02;6.38;35.06
79026;DHT22;74892;44.760;37.726;2024-01-30T09:36:09;6.31;35.88
79026;DHT22;74892;44.760;37.726;2024-01-30T09:37:11;6.40;35.20
79026;DHT22;74892;44.760;37.726;2024-01-30T09:38:19;6.35;34.21
79026;DHT22;74892;44.760;37.726;2024-01-30T09:39:23;6.41;35.65
79026;DHT22;74892;44.760;37.726;2024-01-30T09:40:54;6.41;33.92
79026;DHT22;74892;44.760;37.726;2024-01-30T09:43:22;6.69;37.00
79026;DHT22;74892;44.760;37.726;2024-01-30T09:44:25;6.85;33.38
79026;DHT22;74892;44.760;37.726;2024-01-30T09:45:32;7.00;33.70
79026;DHT22;74892;44.760;37.726;2024-01-30T09:46:39;7.16;34.02
79026;DHT22;74892;44.760;37.726;2024-01-30T09:47:42;7.11;34.92
79026;DHT22;74892;44.760;37.726;2024-01-30T09:48:49;7.00;34.71
79026;DHT22;74892;44.760;37.726;2024-01-30T09:50:04;7.14;37.17
79026;DHT22;74892;44.760;37.726;2024-01-30T09:51:08;7.15;36.46